Kosse, TX (76653)

10:58 AM CST on February 12, 2016 (GMT -0600)
Rural Groesbeck | | Change Station
CLOSE
Current Station
Personal Weather Station
Location: Groesbeck, TX
Elevation: 486 ft
Nearby Weather Stations

Elev 486 ft 31.46 °N, 96.52 °W | Updated 8 seconds ago

Clear
Clear
66.2 °F
Feels Like 66.2 °F
N
0.9
Wind Variable Wind from NNE
Gusts 2.5 mph

Today
High -- | Low -- °F
--% Chance of Precip.
Yesterday
High -- | Low -- °F
Precip. -- in
Pressure 30.26 in
Visibility 10.0 miles
Clouds Clear
Dew Point 49 °F
Humidity 54%
Rainfall 0.00 in
Snow Depth Not available.
7:10 AM 6:10 PM
Waxing Crescent, 22% visible
METAR KLXY 121635Z AUTO 36005KT 10SM CLR 16/06 A3026 RMK AO2 T01550060
Pressure 30.26 in
Visibility 10.0 miles
Clouds Clear
Dew Point 49 °F
Humidity 54%
Rainfall 0.00 in
Snow Depth Not available.
7:10 AM 6:10 PM
Waxing Crescent, 22% visible
METAR KLXY 121635Z AUTO 36005KT 10SM CLR 16/06 A3026 RMK AO2 T01550060

10-Day Weather Forecast

Almanac

Astronomy

Feb. 12, 2016 Rise Set
Actual Time
Civil Twilight
Nautical Twilight
Astronomical Twilight
Moon
Length of Visible Light
Length of Day
Tomorrow will be .
, % of the Moon is Illuminated

Today's Extremes

State Highs State Lows

Community

WunderPhotos

Upload Photos

1,892,354 photos uploaded!

WunderBlog® & News

Nearby

Air Quality

  Air Quality AQ Index Pollutant
Not available.

Snow Depth

Station Depth Elevation

Earthquake Activity

City Distance Mag. Time & Date
Minimum magnitude displayed is 2.5.

Coastal Water Temperatures

Place Temperature

Stations

Nearby Weather Stations

Station Location Temp. Windchill Dew Point Humidity Wind Precip. Elev Updated Type
                   

Watches & Warnings

There are currently no watches in effect.